sensor_id;sensor_type;location;lat;lon;timestamp;P1;durP1;ratioP1;P2;durP2;ratioP2
33094;SDS011;19459;53.044;8.910;2024-03-07T00:00:07;21.92;;;12.32;;
33094;SDS011;19459;53.044;8.910;2024-03-07T00:02:47;23.00;;;12.65;;
33094;SDS011;19459;53.044;8.910;2024-03-07T00:05:14;22.27;;;13.07;;
33094;SDS011;19459;53.044;8.910;2024-03-07T00:07:44;20.27;;;13.25;;
33094;SDS011;19459;53.044;8.910;2024-03-07T00:10:11;29.10;;;14.55;;
33094;SDS011;19459;53.044;8.910;2024-03-07T00:12:38;23.42;;;13.65;;
33094;SDS011;19459;53.044;8.910;2024-03-07T00:15:08;19.45;;;13.13;;
33094;SDS011;19459;53.044;8.910;2024-03-07T00:17:36;19.63;;;13.48;;
33094;SDS011;19459;53.044;8.910;2024-03-07T00:20:03;21.17;;;13.50;;
33094;SDS011;19459;53.044;8.910;2024-03-07T00:22:33;23.13;;;14.45;;
33094;SDS011;19459;53.044;8.910;2024-03-07T00:25:02;23.80;;;13.40;;
33094;SDS011;19459;53.044;8.910;2024-03-07T00:27:30;24.13;;;14.43;;
33094;SDS011;19459;53.044;8.910;2024-03-07T00:29:58;25.73;;;15.27;;
33094;SDS011;19459;53.044;8.910;2024-03-07T00:32:33;22.88;;;15.25;;
33094;SDS011;19459;53.044;8.910;2024-03-07T00:35:04;22.08;;;14.60;;
33094;SDS011;19459;53.044;8.910;2024-03-07T00:37:36;25.83;;;14.40;;
33094;SDS011;19459;53.044;8.910;2024-03-07T00:40:02;23.38;;;14.57;;
33094;SDS011;19459;53.044;8.910;2024-03-07T00:42:28;23.70;;;15.20;;
33094;SDS011;19459;53.044;8.910;2024-03-07T00:44:54;22.90;;;14.68;;
33094;SDS011;19459;53.044;8.910;2024-03-07T00:47:20;24.10;;;14.95;;
33094;SDS011;19459;53.044;8.910;2024-03-07T00:49:45;23.55;;;14.45;;
33094;SDS011;19459;53.044;8.910;2024-03-07T00:52:12;20.98;;;14.85;;
33094;SDS011;19459;53.044;8.910;2024-03-07T00:54:38;24.17;;;14.68;;
33094;SDS011;19459;53.044;8.910;2024-03-07T00:57:04;24.48;;;15.45;;
33094;SDS011;19459;53.044;8.910;2024-03-07T00:59:30;20.00;;;13.27;;
33094;SDS011;19459;53.044;8.910;2024-03-07T01:01:56;24.13;;;14.75;;
33094;SDS011;19459;53.044;8.910;2024-03-07T01:04:21;22.45;;;14.65;;
33094;SDS011;19459;53.044;8.910;2024-03-07T01:06:47;28.80;;;15.85;;
33094;SDS011;19459;53.044;8.910;2024-03-07T01:09:13;25.35;;;15.80;;
33094;SDS011;19459;53.044;8.910;2024-03-07T01:11:43;30.63;;;16.55;;
33094;SDS011;19459;53.044;8.910;2024-03-07T01:14:13;29.20;;;18.15;;
33094;SDS011;19459;53.044;8.910;2024-03-07T01:16:39;24.80;;;15.95;;
33094;SDS011;19459;53.044;8.910;2024-03-07T01:19:05;28.52;;;16.65;;
33094;SDS011;19459;53.044;8.910;2024-03-07T01:21:32;28.48;;;17.27;;
33094;SDS011;19459;53.044;8.910;2024-03-07T01:23:59;25.65;;;17.52;;
33094;SDS011;19459;53.044;8.910;2024-03-07T01:26:27;28.55;;;17.25;;
33094;SDS011;19459;53.044;8.910;2024-03-07T01:28:53;27.05;;;16.63;;
33094;SDS011;19459;53.044;8.910;2024-03-07T01:31:21;26.75;;;15.30;;
33094;SDS011;19459;53.044;8.910;2024-03-07T01:33:48;27.13;;;17.38;;
33094;SDS011;19459;53.044;8.910;2024-03-07T01:36:14;31.13;;;18.70;;
33094;SDS011;19459;53.044;8.910;2024-03-07T01:38:40;27.92;;;18.45;;
33094;SDS011;19459;53.044;8.910;2024-03-07T01:41:06;27.67;;;17.80;;
33094;SDS011;19459;53.044;8.910;2024-03-07T01:43:32;30.20;;;19.05;;
33094;SDS011;19459;53.044;8.910;2024-03-07T01:45:58;31.10;;;18.85;;
33094;SDS011;19459;53.044;8.910;2024-03-07T01:48:25;28.02;;;18.27;;
33094;SDS011;19459;53.044;8.910;2024-03-07T01:50:54;33.75;;;19.67;;
33094;SDS011;19459;53.044;8.910;2024-03-07T01:53:21;34.70;;;19.80;;
33094;SDS011;19459;53.044;8.910;2024-03-07T01:55:48;31.75;;;19.58;;
33094;SDS011;19459;53.044;8.910;2024-03-07T01:58:18;33.80;;;21.02;;
33094;SDS011;19459;53.044;8.910;2024-03-07T02:00:44;36.10;;;22.67;;
33094;SDS011;19459;53.044;8.910;2024-03-07T02:03:10;38.35;;;24.00;;
33094;SDS011;19459;53.044;8.910;2024-03-07T02:05:38;36.70;;;22.00;;
33094;SDS011;19459;53.044;8.910;2024-03-07T02:08:05;37.42;;;21.90;;
33094;SDS011;19459;53.044;8.910;2024-03-07T02:10:31;38.30;;;23.20;;
33094;SDS011;19459;53.044;8.910;2024-03-07T02:12:57;37.83;;;23.10;;
33094;SDS011;19459;53.044;8.910;2024-03-07T02:15:22;40.83;;;25.25;;
33094;SDS011;19459;53.044;8.910;2024-03-07T02:17:48;44.28;;;26.00;;
33094;SDS011;19459;53.044;8.910;2024-03-07T02:20:14;46.42;;;26.88;;
33094;SDS011;19459;53.044;8.910;2024-03-07T02:22:41;49.20;;;27.88;;
33094;SDS011;19459;53.044;8.910;2024-03-07T02:25:07;48.97;;;30.00;;
33094;SDS011;19459;53.044;8.910;2024-03-07T02:27:36;59.20;;;33.75;;
33094;SDS011;19459;53.044;8.910;2024-03-07T02:30:03;60.60;;;34.13;;
33094;SDS011;19459;53.044;8.910;2024-03-07T02:32:30;77.32;;;38.00;;
33094;SDS011;19459;53.044;8.910;2024-03-07T02:34:56;78.95;;;40.03;;
33094;SDS011;19459;53.044;8.910;2024-03-07T02:37:22;82.70;;;42.13;;
33094;SDS011;19459;53.044;8.910;2024-03-07T02:39:48;82.03;;;41.13;;
33094;SDS011;19459;53.044;8.910;2024-03-07T02:42:14;80.05;;;42.67;;
33094;SDS011;19459;53.044;8.910;2024-03-07T02:44:40;87.65;;;43.90;;
33094;SDS011;19459;53.044;8.910;2024-03-07T02:47:06;84.80;;;42.47;;
33094;SDS011;19459;53.044;8.910;2024-03-07T02:49:32;73.20;;;37.42;;
33094;SDS011;19459;53.044;8.910;2024-03-07T02:51:58;83.50;;;39.55;;
33094;SDS011;19459;53.044;8.910;2024-03-07T02:54:24;81.45;;;39.70;;
33094;SDS011;19459;53.044;8.910;2024-03-07T02:56:50;70.95;;;37.92;;
33094;SDS011;19459;53.044;8.910;2024-03-07T02:59:15;80.03;;;39.58;;
33094;SDS011;19459;53.044;8.910;2024-03-07T03:01:41;75.70;;;37.17;;
33094;SDS011;19459;53.044;8.910;2024-03-07T03:04:07;76.22;;;37.78;;
33094;SDS011;19459;53.044;8.910;2024-03-07T03:06:33;67.82;;;35.92;;
33094;SDS011;19459;53.044;8.910;2024-03-07T03:08:59;65.93;;;36.97;;
33094;SDS011;19459;53.044;8.910;2024-03-07T03:11:25;75.93;;;36.75;;
33094;SDS011;19459;53.044;8.910;2024-03-07T03:13:51;69.50;;;36.13;;
33094;SDS011;19459;53.044;8.910;2024-03-07T03:16:17;66.93;;;37.65;;
33094;SDS011;19459;53.044;8.910;2024-03-07T03:18:43;67.28;;;35.97;;
33094;SDS011;19459;53.044;8.910;2024-03-07T03:21:09;72.88;;;37.70;;
33094;SDS011;19459;53.044;8.910;2024-03-07T03:23:34;70.03;;;37.40;;
33094;SDS011;19459;53.044;8.910;2024-03-07T03:26:00;74.55;;;35.40;;
33094;SDS011;19459;53.044;8.910;2024-03-07T03:28:26;75.25;;;37.58;;
33094;SDS011;19459;53.044;8.910;2024-03-07T03:30:52;80.22;;;37.58;;
33094;SDS011;19459;53.044;8.910;2024-03-07T03:33:18;70.80;;;35.80;;
33094;SDS011;19459;53.044;8.910;2024-03-07T03:35:45;73.55;;;38.38;;
33094;SDS011;19459;53.044;8.910;2024-03-07T03:38:11;75.57;;;37.72;;
33094;SDS011;19459;53.044;8.910;2024-03-07T03:40:37;72.65;;;38.22;;
33094;SDS011;19459;53.044;8.910;2024-03-07T03:43:03;81.75;;;37.53;;
33094;SDS011;19459;53.044;8.910;2024-03-07T03:45:29;72.57;;;39.42;;
33094;SDS011;19459;53.044;8.910;2024-03-07T03:47:57;71.85;;;38.90;;
33094;SDS011;19459;53.044;8.910;2024-03-07T03:50:22;78.72;;;37.45;;
33094;SDS011;19459;53.044;8.910;2024-03-07T03:52:48;69.72;;;38.92;;
33094;SDS011;19459;53.044;8.910;2024-03-07T03:55:14;73.10;;;38.67;;
33094;SDS011;19459;53.044;8.910;2024-03-07T03:57:42;71.55;;;36.78;;
33094;SDS011;19459;53.044;8.910;2024-03-07T04:00:09;77.82;;;39.55;;
33094;SDS011;19459;53.044;8.910;2024-03-07T04:02:42;80.57;;;39.20;;
33094;SDS011;19459;53.044;8.910;2024-03-07T04:07:39;75.15;;;39.80;;
33094;SDS011;19459;53.044;8.910;2024-03-07T04:10:09;84.78;;;38.85;;
33094;SDS011;19459;53.044;8.910;2024-03-07T04:12:37;82.38;;;36.67;;
33094;SDS011;19459;53.044;8.910;2024-03-07T04:15:06;79.15;;;39.80;;
33094;SDS011;19459;53.044;8.910;2024-03-07T04:17:34;80.57;;;40.00;;
33094;SDS011;19459;53.044;8.910;2024-03-07T04:20:01;82.85;;;41.53;;
33094;SDS011;19459;53.044;8.910;2024-03-07T04:22:31;82.70;;;41.60;;
33094;SDS011;19459;53.044;8.910;2024-03-07T04:25:00;79.90;;;40.60;;
33094;SDS011;19459;53.044;8.910;2024-03-07T04:27:26;92.05;;;44.40;;
33094;SDS011;19459;53.044;8.910;2024-03-07T04:29:52;90.18;;;42.63;;
33094;SDS011;19459;53.044;8.910;2024-03-07T04:32:18;97.47;;;43.30;;
33094;SDS011;19459;53.044;8.910;2024-03-07T04:34:44;94.35;;;43.97;;
33094;SDS011;19459;53.044;8.910;2024-03-07T04:37:10;89.75;;;42.83;;
33094;SDS011;19459;53.044;8.910;2024-03-07T04:39:37;89.40;;;44.75;;
33094;SDS011;19459;53.044;8.910;2024-03-07T04:42:06;90.40;;;41.40;;
33094;SDS011;19459;53.044;8.910;2024-03-07T04:44:33;95.85;;;43.63;;
33094;SDS011;19459;53.044;8.910;2024-03-07T04:47:02;87.10;;;43.35;;
33094;SDS011;19459;53.044;8.910;2024-03-07T04:49:29;94.20;;;44.13;;
33094;SDS011;19459;53.044;8.910;2024-03-07T04:51:58;94.07;;;45.08;;
33094;SDS011;19459;53.044;8.910;2024-03-07T04:54:25;94.57;;;46.22;;
33094;SDS011;19459;53.044;8.910;2024-03-07T04:56:53;101.93;;;49.05;;
33094;SDS011;19459;53.044;8.910;2024-03-07T04:59:19;104.25;;;48.13;;
33094;SDS011;19459;53.044;8.910;2024-03-07T05:01:46;94.15;;;46.33;;
33094;SDS011;19459;53.044;8.910;2024-03-07T05:04:13;97.72;;;46.85;;
33094;SDS011;19459;53.044;8.910;2024-03-07T05:06:40;95.43;;;45.33;;
33094;SDS011;19459;53.044;8.910;2024-03-07T05:09:07;105.28;;;46.03;;
33094;SDS011;19459;53.044;8.910;2024-03-07T05:11:35;99.45;;;44.67;;
33094;SDS011;19459;53.044;8.910;2024-03-07T05:14:02;110.20;;;47.72;;
33094;SDS011;19459;53.044;8.910;2024-03-07T05:16:28;105.88;;;44.67;;
33094;SDS011;19459;53.044;8.910;2024-03-07T05:18:56;95.20;;;45.78;;
33094;SDS011;19459;53.044;8.910;2024-03-07T05:21:26;90.07;;;41.33;;
33094;SDS011;19459;53.044;8.910;2024-03-07T05:23:58;102.43;;;45.58;;
33094;SDS011;19459;53.044;8.910;2024-03-07T05:26:28;111.25;;;46.50;;
33094;SDS011;19459;53.044;8.910;2024-03-07T05:28:58;93.68;;;45.03;;
33094;SDS011;19459;53.044;8.910;2024-03-07T05:31:30;109.53;;;45.50;;
33094;SDS011;19459;53.044;8.910;2024-03-07T05:34:00;107.30;;;48.72;;
33094;SDS011;19459;53.044;8.910;2024-03-07T05:36:29;105.32;;;47.15;;
33094;SDS011;19459;53.044;8.910;2024-03-07T05:38:57;109.93;;;46.80;;
33094;SDS011;19459;53.044;8.910;2024-03-07T05:41:22;111.57;;;48.72;;
33094;SDS011;19459;53.044;8.910;2024-03-07T05:43:48;109.35;;;48.47;;
33094;SDS011;19459;53.044;8.910;2024-03-07T05:46:16;115.93;;;49.50;;
33094;SDS011;19459;53.044;8.910;2024-03-07T05:48:42;115.90;;;51.65;;
33094;SDS011;19459;53.044;8.910;2024-03-07T05:51:11;120.22;;;52.40;;
33094;SDS011;19459;53.044;8.910;2024-03-07T05:53:37;121.60;;;51.22;;
33094;SDS011;19459;53.044;8.910;2024-03-07T05:56:03;116.30;;;48.47;;
33094;SDS011;19459;53.044;8.910;2024-03-07T05:58:29;109.82;;;50.28;;
33094;SDS011;19459;53.044;8.910;2024-03-07T06:00:55;118.90;;;50.90;;
33094;SDS011;19459;53.044;8.910;2024-03-07T06:03:21;118.55;;;49.13;;
33094;SDS011;19459;53.044;8.910;2024-03-07T06:05:49;114.35;;;51.33;;
33094;SDS011;19459;53.044;8.910;2024-03-07T06:08:16;122.95;;;53.97;;
33094;SDS011;19459;53.044;8.910;2024-03-07T06:10:46;126.28;;;52.22;;
33094;SDS011;19459;53.044;8.910;2024-03-07T06:13:13;108.85;;;50.63;;
33094;SDS011;19459;53.044;8.910;2024-03-07T06:15:43;117.40;;;48.92;;
33094;SDS011;19459;53.044;8.910;2024-03-07T06:18:10;112.43;;;49.22;;
33094;SDS011;19459;53.044;8.910;2024-03-07T06:20:36;110.72;;;49.05;;
33094;SDS011;19459;53.044;8.910;2024-03-07T06:23:02;113.85;;;48.78;;
33094;SDS011;19459;53.044;8.910;2024-03-07T06:25:30;105.75;;;47.42;;
33094;SDS011;19459;53.044;8.910;2024-03-07T06:28:12;118.32;;;48.58;;
33094;SDS011;19459;53.044;8.910;2024-03-07T06:30:39;100.97;;;47.13;;
33094;SDS011;19459;53.044;8.910;2024-03-07T06:33:07;99.22;;;46.22;;
33094;SDS011;19459;53.044;8.910;2024-03-07T06:35:35;98.13;;;43.10;;
33094;SDS011;19459;53.044;8.910;2024-03-07T06:38:11;98.20;;;44.60;;
33094;SDS011;19459;53.044;8.910;2024-03-07T06:40:38;91.60;;;42.00;;
33094;SDS011;19459;53.044;8.910;2024-03-07T06:43:08;93.72;;;42.88;;
33094;SDS011;19459;53.044;8.910;2024-03-07T06:45:37;89.45;;;43.05;;
33094;SDS011;19459;53.044;8.910;2024-03-07T06:48:07;96.38;;;44.35;;
33094;SDS011;19459;53.044;8.910;2024-03-07T06:50:36;91.63;;;43.40;;
33094;SDS011;19459;53.044;8.910;2024-03-07T06:53:02;86.35;;;40.95;;
33094;SDS011;19459;53.044;8.910;2024-03-07T06:55:29;90.22;;;41.88;;
33094;SDS011;19459;53.044;8.910;2024-03-07T06:57:55;78.78;;;40.38;;
33094;SDS011;19459;53.044;8.910;2024-03-07T07:00:23;78.47;;;41.42;;
33094;SDS011;19459;53.044;8.910;2024-03-07T07:02:51;86.60;;;41.63;;
33094;SDS011;19459;53.044;8.910;2024-03-07T07:05:20;95.88;;;42.42;;
33094;SDS011;19459;53.044;8.910;2024-03-07T07:07:46;85.50;;;41.17;;
33094;SDS011;19459;53.044;8.910;2024-03-07T07:10:13;77.35;;;38.58;;
33094;SDS011;19459;53.044;8.910;2024-03-07T07:12:49;83.03;;;41.13;;
33094;SDS011;19459;53.044;8.910;2024-03-07T07:15:19;92.93;;;41.55;;
33094;SDS011;19459;53.044;8.910;2024-03-07T07:17:46;93.20;;;41.42;;
33094;SDS011;19459;53.044;8.910;2024-03-07T07:20:14;87.50;;;42.92;;
33094;SDS011;19459;53.044;8.910;2024-03-07T07:22:41;87.78;;;43.05;;
33094;SDS011;19459;53.044;8.910;2024-03-07T07:25:07;89.32;;;43.35;;
33094;SDS011;19459;53.044;8.910;2024-03-07T07:27:46;95.65;;;43.25;;
33094;SDS011;19459;53.044;8.910;2024-03-07T07:30:14;98.45;;;43.33;;
33094;SDS011;19459;53.044;8.910;2024-03-07T07:32:42;99.45;;;44.75;;
33094;SDS011;19459;53.044;8.910;2024-03-07T07:35:09;88.95;;;42.97;;
33094;SDS011;19459;53.044;8.910;2024-03-07T07:37:37;97.65;;;43.08;;
33094;SDS011;19459;53.044;8.910;2024-03-07T07:40:04;100.72;;;43.72;;
33094;SDS011;19459;53.044;8.910;2024-03-07T07:42:33;95.60;;;44.20;;
33094;SDS011;19459;53.044;8.910;2024-03-07T07:45:04;97.35;;;44.90;;
33094;SDS011;19459;53.044;8.910;2024-03-07T07:47:39;92.72;;;42.70;;
33094;SDS011;19459;53.044;8.910;2024-03-07T07:50:09;95.57;;;43.07;;
33094;SDS011;19459;53.044;8.910;2024-03-07T07:52:51;91.15;;;40.85;;
33094;SDS011;19459;53.044;8.910;2024-03-07T07:55:20;86.57;;;39.08;;
33094;SDS011;19459;53.044;8.910;2024-03-07T07:57:48;84.32;;;37.38;;
33094;SDS011;19459;53.044;8.910;2024-03-07T08:00:30;92.10;;;39.17;;
33094;SDS011;19459;53.044;8.910;2024-03-07T08:02:57;74.00;;;36.40;;
33094;SDS011;19459;53.044;8.910;2024-03-07T08:05:32;83.43;;;36.90;;
33094;SDS011;19459;53.044;8.910;2024-03-07T08:08:07;82.25;;;35.83;;
33094;SDS011;19459;53.044;8.910;2024-03-07T08:10:37;77.93;;;37.50;;
33094;SDS011;19459;53.044;8.910;2024-03-07T08:13:04;84.72;;;36.58;;
33094;SDS011;19459;53.044;8.910;2024-03-07T08:15:31;78.22;;;35.80;;
33094;SDS011;19459;53.044;8.910;2024-03-07T08:17:57;77.13;;;36.80;;
33094;SDS011;19459;53.044;8.910;2024-03-07T08:20:24;76.95;;;34.85;;
33094;SDS011;19459;53.044;8.910;2024-03-07T08:22:52;69.03;;;33.03;;
33094;SDS011;19459;53.044;8.910;2024-03-07T08:25:20;65.72;;;32.03;;
33094;SDS011;19459;53.044;8.910;2024-03-07T08:27:49;71.20;;;34.78;;
33094;SDS011;19459;53.044;8.910;2024-03-07T08:30:17;60.05;;;29.42;;
33094;SDS011;19459;53.044;8.910;2024-03-07T08:32:44;61.10;;;28.45;;
33094;SDS011;19459;53.044;8.910;2024-03-07T08:35:13;65.93;;;29.23;;
33094;SDS011;19459;53.044;8.910;2024-03-07T08:37:41;61.83;;;27.40;;
33094;SDS011;19459;53.044;8.910;2024-03-07T08:40:09;57.15;;;27.73;;
33094;SDS011;19459;53.044;8.910;2024-03-07T08:42:41;61.50;;;29.25;;
33094;SDS011;19459;53.044;8.910;2024-03-07T08:45:07;55.50;;;27.27;;
33094;SDS011;19459;53.044;8.910;2024-03-07T08:47:36;64.40;;;28.23;;
33094;SDS011;19459;53.044;8.910;2024-03-07T08:50:03;53.20;;;27.85;;
33094;SDS011;19459;53.044;8.910;2024-03-07T08:52:36;59.78;;;29.17;;
33094;SDS011;19459;53.044;8.910;2024-03-07T08:55:03;74.72;;;28.38;;
33094;SDS011;19459;53.044;8.910;2024-03-07T08:57:29;56.38;;;28.10;;
33094;SDS011;19459;53.044;8.910;2024-03-07T08:59:56;63.47;;;29.08;;
33094;SDS011;19459;53.044;8.910;2024-03-07T09:02:22;57.83;;;28.25;;
33094;SDS011;19459;53.044;8.910;2024-03-07T09:04:47;60.90;;;27.25;;
33094;SDS011;19459;53.044;8.910;2024-03-07T09:07:14;56.13;;;27.23;;
33094;SDS011;19459;53.044;8.910;2024-03-07T09:09:43;54.47;;;26.05;;
33094;SDS011;19459;53.044;8.910;2024-03-07T09:12:10;51.28;;;25.83;;
33094;SDS011;19459;53.044;8.910;2024-03-07T09:14:37;54.58;;;24.25;;
33094;SDS011;19459;53.044;8.910;2024-03-07T09:17:03;54.72;;;25.90;;
33094;SDS011;19459;53.044;8.910;2024-03-07T09:19:29;48.58;;;25.00;;
33094;SDS011;19459;53.044;8.910;2024-03-07T09:21:56;54.13;;;26.17;;
33094;SDS011;19459;53.044;8.910;2024-03-07T09:24:22;47.78;;;24.80;;
33094;SDS011;19459;53.044;8.910;2024-03-07T09:26:51;43.25;;;24.30;;
33094;SDS011;19459;53.044;8.910;2024-03-07T09:29:18;46.00;;;24.67;;
33094;SDS011;19459;53.044;8.910;2024-03-07T09:31:45;53.65;;;24.60;;
33094;SDS011;19459;53.044;8.910;2024-03-07T09:34:11;47.67;;;23.77;;
33094;SDS011;19459;53.044;8.910;2024-03-07T09:36:41;58.67;;;27.23;;
33094;SDS011;19459;53.044;8.910;2024-03-07T09:39:07;51.05;;;26.60;;
33094;SDS011;19459;53.044;8.910;2024-03-07T09:41:34;56.00;;;26.27;;
33094;SDS011;19459;53.044;8.910;2024-03-07T09:44:02;53.13;;;26.15;;
33094;SDS011;19459;53.044;8.910;2024-03-07T09:46:30;59.20;;;27.40;;
33094;SDS011;19459;53.044;8.910;2024-03-07T09:48:56;58.63;;;26.45;;
33094;SDS011;19459;53.044;8.910;2024-03-07T09:51:23;57.40;;;25.65;;
33094;SDS011;19459;53.044;8.910;2024-03-07T09:53:51;53.13;;;25.08;;
33094;SDS011;19459;53.044;8.910;2024-03-07T09:56:20;58.28;;;26.48;;
33094;SDS011;19459;53.044;8.910;2024-03-07T09:58:50;48.88;;;25.40;;
33094;SDS011;19459;53.044;8.910;2024-03-07T10:01:20;48.08;;;22.77;;
33094;SDS011;19459;53.044;8.910;2024-03-07T10:03:47;41.30;;;21.70;;
33094;SDS011;19459;53.044;8.910;2024-03-07T10:06:13;42.00;;;20.70;;
33094;SDS011;19459;53.044;8.910;2024-03-07T10:08:40;34.70;;;20.15;;
33094;SDS011;19459;53.044;8.910;2024-03-07T10:11:07;39.03;;;20.05;;
33094;SDS011;19459;53.044;8.910;2024-03-07T10:13:34;33.30;;;18.70;;
33094;SDS011;19459;53.044;8.910;2024-03-07T10:16:03;37.55;;;18.83;;
33094;SDS011;19459;53.044;8.910;2024-03-07T10:18:30;38.10;;;20.30;;
33094;SDS011;19459;53.044;8.910;2024-03-07T10:20:57;33.42;;;19.65;;
33094;SDS011;19459;53.044;8.910;2024-03-07T10:23:23;30.13;;;17.55;;
33094;SDS011;19459;53.044;8.910;2024-03-07T10:25:50;28.67;;;17.85;;
33094;SDS011;19459;53.044;8.910;2024-03-07T10:28:16;32.08;;;17.30;;
33094;SDS011;19459;53.044;8.910;2024-03-07T10:30:43;36.35;;;18.73;;
33094;SDS011;19459;53.044;8.910;2024-03-07T10:33:16;29.23;;;18.60;;
33094;SDS011;19459;53.044;8.910;2024-03-07T10:35:46;34.08;;;19.17;;
33094;SDS011;19459;53.044;8.910;2024-03-07T10:38:14;38.10;;;17.67;;
33094;SDS011;19459;53.044;8.910;2024-03-07T10:40:40;43.50;;;18.80;;
33094;SDS011;19459;53.044;8.910;2024-03-07T10:43:09;32.00;;;18.63;;
33094;SDS011;19459;53.044;8.910;2024-03-07T10:45:46;31.45;;;16.75;;
33094;SDS011;19459;53.044;8.910;2024-03-07T10:48:19;30.27;;;16.63;;
33094;SDS011;19459;53.044;8.910;2024-03-07T10:56:37;28.15;;;16.10;;
33094;SDS011;19459;53.044;8.910;2024-03-07T10:59:26;28.83;;;16.85;;
33094;SDS011;19459;53.044;8.910;2024-03-07T11:01:59;30.48;;;18.38;;
33094;SDS011;19459;53.044;8.910;2024-03-07T11:04:41;30.52;;;17.83;;
33094;SDS011;19459;53.044;8.910;2024-03-07T11:07:08;31.02;;;16.88;;
33094;SDS011;19459;53.044;8.910;2024-03-07T11:09:35;31.17;;;18.83;;
33094;SDS011;19459;53.044;8.910;2024-03-07T11:12:02;32.90;;;16.42;;
33094;SDS011;19459;53.044;8.910;2024-03-07T11:14:29;29.75;;;17.50;;
33094;SDS011;19459;53.044;8.910;2024-03-07T11:16:56;32.60;;;18.02;;
33094;SDS011;19459;53.044;8.910;2024-03-07T11:19:27;25.90;;;16.42;;
33094;SDS011;19459;53.044;8.910;2024-03-07T11:21:56;26.25;;;16.15;;
33094;SDS011;19459;53.044;8.910;2024-03-07T11:26:56;32.72;;;18.52;;
33094;SDS011;19459;53.044;8.910;2024-03-07T11:32:14;27.73;;;15.45;;
33094;SDS011;19459;53.044;8.910;2024-03-07T11:34:41;31.75;;;16.27;;
33094;SDS011;19459;53.044;8.910;2024-03-07T11:40:42;31.90;;;18.42;;
33094;SDS011;19459;53.044;8.910;2024-03-07T11:43:00;32.17;;;17.52;;
33094;SDS011;19459;53.044;8.910;2024-03-07T11:45:29;26.27;;;15.80;;
33094;SDS011;19459;53.044;8.910;2024-03-07T11:48:03;27.63;;;16.75;;
33094;SDS011;19459;53.044;8.910;2024-03-07T11:50:34;31.13;;;16.67;;
33094;SDS011;19459;53.044;8.910;2024-03-07T11:53:06;30.75;;;18.00;;
33094;SDS011;19459;53.044;8.910;2024-03-07T11:55:36;29.40;;;16.77;;
33094;SDS011;19459;53.044;8.910;2024-03-07T11:58:18;28.70;;;15.52;;
33094;SDS011;19459;53.044;8.910;2024-03-07T12:00:48;30.73;;;15.98;;
33094;SDS011;19459;53.044;8.910;2024-03-07T12:03:17;28.40;;;16.38;;
33094;SDS011;19459;53.044;8.910;2024-03-07T12:05:47;30.65;;;16.58;;
33094;SDS011;19459;53.044;8.910;2024-03-07T12:08:16;42.53;;;17.05;;
33094;SDS011;19459;53.044;8.910;2024-03-07T12:10:43;33.45;;;15.77;;
33094;SDS011;19459;53.044;8.910;2024-03-07T12:13:13;31.70;;;16.65;;
33094;SDS011;19459;53.044;8.910;2024-03-07T12:15:44;29.00;;;16.15;;
33094;SDS011;19459;53.044;8.910;2024-03-07T12:18:11;26.63;;;15.73;;
33094;SDS011;19459;53.044;8.910;2024-03-07T12:20:42;28.20;;;16.05;;
33094;SDS011;19459;53.044;8.910;2024-03-07T12:23:15;29.45;;;17.38;;
33094;SDS011;19459;53.044;8.910;2024-03-07T12:25:44;28.05;;;15.93;;
33094;SDS011;19459;53.044;8.910;2024-03-07T12:28:13;33.20;;;16.30;;
33094;SDS011;19459;53.044;8.910;2024-03-07T12:33:11;26.75;;;16.58;;
33094;SDS011;19459;53.044;8.910;2024-03-07T12:35:42;25.48;;;14.73;;
33094;SDS011;19459;53.044;8.910;2024-03-07T12:38:13;37.38;;;16.13;;
33094;SDS011;19459;53.044;8.910;2024-03-07T12:40:41;31.58;;;16.83;;
33094;SDS011;19459;53.044;8.910;2024-03-07T12:43:17;30.40;;;16.90;;
33094;SDS011;19459;53.044;8.910;2024-03-07T12:45:50;27.08;;;15.68;;
33094;SDS011;19459;53.044;8.910;2024-03-07T12:48:17;31.42;;;18.55;;
33094;SDS011;19459;53.044;8.910;2024-03-07T12:50:46;26.50;;;16.13;;
33094;SDS011;19459;53.044;8.910;2024-03-07T12:53:22;31.77;;;17.10;;
33094;SDS011;19459;53.044;8.910;2024-03-07T12:55:50;31.20;;;16.67;;
33094;SDS011;19459;53.044;8.910;2024-03-07T12:58:19;28.88;;;17.45;;
33094;SDS011;19459;53.044;8.910;2024-03-07T13:00:50;33.63;;;17.70;;
33094;SDS011;19459;53.044;8.910;2024-03-07T13:03:17;43.40;;;18.58;;
33094;SDS011;19459;53.044;8.910;2024-03-07T13:05:43;36.47;;;19.02;;
33094;SDS011;19459;53.044;8.910;2024-03-07T13:08:09;37.13;;;18.08;;
33094;SDS011;19459;53.044;8.910;2024-03-07T13:10:41;29.42;;;17.73;;
33094;SDS011;19459;53.044;8.910;2024-03-07T13:13:08;37.13;;;18.60;;
33094;SDS011;19459;53.044;8.910;2024-03-07T13:15:37;31.50;;;18.30;;
33094;SDS011;19459;53.044;8.910;2024-03-07T13:18:04;41.03;;;19.65;;
33094;SDS011;19459;53.044;8.910;2024-03-07T13:20:37;35.95;;;17.75;;
33094;SDS011;19459;53.044;8.910;2024-03-07T13:23:03;31.20;;;17.85;;
33094;SDS011;19459;53.044;8.910;2024-03-07T13:25:29;34.78;;;19.08;;
33094;SDS011;19459;53.044;8.910;2024-03-07T13:30:36;34.90;;;18.30;;
33094;SDS011;19459;53.044;8.910;2024-03-07T13:33:02;30.00;;;17.58;;
33094;SDS011;19459;53.044;8.910;2024-03-07T13:35:29;42.10;;;19.75;;
33094;SDS011;19459;53.044;8.910;2024-03-07T13:37:55;36.95;;;19.00;;
33094;SDS011;19459;53.044;8.910;2024-03-07T13:40:22;36.63;;;19.55;;
33094;SDS011;19459;53.044;8.910;2024-03-07T13:45:22;43.40;;;22.45;;
33094;SDS011;19459;53.044;8.910;2024-03-07T13:48:04;41.97;;;21.75;;
33094;SDS011;19459;53.044;8.910;2024-03-07T13:50:31;47.60;;;21.85;;
33094;SDS011;19459;53.044;8.910;2024-03-07T13:52:59;40.45;;;21.90;;
33094;SDS011;19459;53.044;8.910;2024-03-07T14:05:05;46.92;;;20.10;;
33094;SDS011;19459;53.044;8.910;2024-03-07T14:11:48;41.05;;;22.02;;
33094;SDS011;19459;53.044;8.910;2024-03-07T14:32:12;45.55;;;21.40;;
33094;SDS011;19459;53.044;8.910;2024-03-07T14:34:46;38.33;;;21.13;;
33094;SDS011;19459;53.044;8.910;2024-03-07T14:37:49;45.50;;;23.13;;
33094;SDS011;19459;53.044;8.910;2024-03-07T14:40:21;37.30;;;19.55;;
33094;SDS011;19459;53.044;8.910;2024-03-07T14:42:49;40.70;;;20.70;;
33094;SDS011;19459;53.044;8.910;2024-03-07T14:45:19;36.45;;;21.38;;
33094;SDS011;19459;53.044;8.910;2024-03-07T14:47:52;45.38;;;20.92;;
33094;SDS011;19459;53.044;8.910;2024-03-07T14:50:19;35.22;;;21.10;;
33094;SDS011;19459;53.044;8.910;2024-03-07T14:52:49;38.35;;;20.77;;
33094;SDS011;19459;53.044;8.910;2024-03-07T14:55:15;43.53;;;21.77;;
33094;SDS011;19459;53.044;8.910;2024-03-07T14:57:44;39.78;;;20.70;;
33094;SDS011;19459;53.044;8.910;2024-03-07T15:00:11;39.80;;;19.90;;
33094;SDS011;19459;53.044;8.910;2024-03-07T15:02:45;38.03;;;20.35;;
33094;SDS011;19459;53.044;8.910;2024-03-07T15:05:12;39.85;;;19.50;;
33094;SDS011;19459;53.044;8.910;2024-03-07T15:07:43;37.55;;;20.63;;
33094;SDS011;19459;53.044;8.910;2024-03-07T15:10:23;40.33;;;19.75;;
33094;SDS011;19459;53.044;8.910;2024-03-07T15:12:53;39.70;;;20.23;;
33094;SDS011;19459;53.044;8.910;2024-03-07T15:15:19;35.67;;;20.65;;
33094;SDS011;19459;53.044;8.910;2024-03-07T15:17:49;34.58;;;20.42;;
33094;SDS011;19459;53.044;8.910;2024-03-07T15:20:16;35.90;;;21.10;;
33094;SDS011;19459;53.044;8.910;2024-03-07T15:23:09;41.30;;;20.58;;